createdAt,value
2019-03-13T00:01:40.558Z,9.41
2019-03-13T00:04:10.215Z,9.46
2019-03-13T00:06:42.922Z,9.39
2019-03-13T00:09:13.271Z,9.46
2019-03-13T00:11:46.817Z,9.34
2019-03-13T00:14:16.475Z,9.32
2019-03-13T00:16:48.161Z,9.15
2019-03-13T00:19:17.842Z,9.25
2019-03-13T00:21:47.440Z,9.11
2019-03-13T00:24:17.136Z,9.04
2019-03-13T00:26:46.742Z,8.92
2019-03-13T00:29:16.342Z,8.69
2019-03-13T00:31:45.955Z,8.68
2019-03-13T00:34:15.564Z,8.62
2019-03-13T00:36:45.146Z,8.57
2019-03-13T00:39:14.834Z,8.46
2019-03-13T00:41:44.314Z,8.15
2019-03-13T00:44:13.861Z,8.14
2019-03-13T00:46:43.530Z,7.98
2019-03-13T00:49:14.632Z,8.20
2019-03-13T00:51:44.370Z,8.01
2019-03-13T00:54:14.081Z,7.86
2019-03-13T00:56:43.691Z,7.77
2019-03-13T00:59:14.425Z,7.80
2019-03-13T01:01:51.476Z,7.95
2019-03-13T01:04:22.658Z,7.69
2019-03-13T01:06:53.915Z,7.84
2019-03-13T01:09:23.499Z,7.97
2019-03-13T01:11:53.058Z,7.86
2019-03-13T01:14:22.816Z,7.90
2019-03-13T01:16:52.479Z,7.96
2019-03-13T01:19:22.068Z,7.68
2019-03-13T01:21:51.637Z,7.91
2019-03-13T01:24:21.339Z,7.78
2019-03-13T01:26:50.941Z,7.72
2019-03-13T01:29:23.393Z,7.70
2019-03-13T01:31:54.766Z,7.74
2019-03-13T01:34:31.857Z,7.68
2019-03-13T01:37:01.784Z,7.81
2019-03-13T01:39:31.461Z,7.92
2019-03-13T01:42:01.087Z,8.07
2019-03-13T01:44:31.015Z,8.07
2019-03-13T01:47:00.574Z,7.75
2019-03-13T01:49:30.156Z,7.69
2019-03-13T01:52:01.155Z,7.54
2019-03-13T01:54:31.163Z,7.72
2019-03-13T01:57:00.917Z,7.56
2019-03-13T01:59:30.440Z,7.75
2019-03-13T02:02:00.103Z,7.87
2019-03-13T02:04:29.613Z,7.94
2019-03-13T02:06:59.162Z,7.56
2019-03-13T02:09:28.847Z,7.76
2019-03-13T02:11:58.435Z,7.77
2019-03-13T02:14:28.280Z,7.49
2019-03-13T02:16:57.785Z,7.65
2019-03-13T02:19:27.506Z,7.57
2019-03-13T02:21:59.289Z,7.56
2019-03-13T02:24:28.919Z,7.54
2019-03-13T02:26:58.423Z,7.34
2019-03-13T02:29:28.121Z,7.37
2019-03-13T02:31:57.772Z,7.40
2019-03-13T02:34:27.352Z,7.42
2019-03-13T02:36:57.298Z,7.41
2019-03-13T02:39:27.044Z,7.59
2019-03-13T02:41:56.906Z,7.35
2019-03-13T02:44:26.666Z,7.28
2019-03-13T02:46:56.245Z,7.31
2019-03-13T02:49:25.769Z,7.45
2019-03-13T02:51:55.533Z,7.39
2019-03-13T02:54:25.118Z,7.53
2019-03-13T02:56:54.627Z,7.59
2019-03-13T02:59:24.323Z,7.41
2019-03-13T03:01:55.643Z,7.41
2019-03-13T03:04:25.328Z,7.34
2019-03-13T03:06:54.972Z,7.30
2019-03-13T03:09:24.517Z,7.49
2019-03-13T03:11:54.014Z,7.44
2019-03-13T03:14:23.628Z,7.52
2019-03-13T03:16:54.386Z,7.33
2019-03-13T03:19:25.485Z,7.23
2019-03-13T03:21:58.861Z,7.19
2019-03-13T03:24:28.609Z,7.28
2019-03-13T03:26:58.660Z,7.26
2019-03-13T03:29:28.453Z,7.26
2019-03-13T03:31:59.163Z,7.37
2019-03-13T03:34:28.710Z,7.05
2019-03-13T03:36:58.303Z,7.10
2019-03-13T03:39:27.895Z,7.38
2019-03-13T03:41:58.477Z,7.17
2019-03-13T03:44:28.463Z,7.21
2019-03-13T03:46:57.971Z,7.09
2019-03-13T03:49:27.575Z,7.12
2019-03-13T03:51:57.237Z,7.55
2019-03-13T03:54:26.854Z,7.70
2019-03-13T03:56:56.468Z,7.22
2019-03-13T03:59:26.214Z,7.34
2019-03-13T04:01:55.890Z,7.29
2019-03-13T04:04:25.483Z,7.40
2019-03-13T04:06:55.495Z,7.25
2019-03-13T04:09:27.713Z,7.23
2019-03-13T04:11:57.555Z,6.94
2019-03-13T04:14:27.108Z,6.94
2019-03-13T04:16:56.780Z,6.81
2019-03-13T04:19:26.352Z,7.09
2019-03-13T04:21:55.981Z,7.16
2019-03-13T04:24:25.510Z,7.32
2019-03-13T04:26:57.787Z,7.06
2019-03-13T04:29:28.402Z,7.18
2019-03-13T04:31:57.957Z,7.06
2019-03-13T04:34:27.546Z,6.96
2019-03-13T04:36:57.089Z,6.88
2019-03-13T04:39:28.353Z,7.17
2019-03-13T04:41:58.022Z,7.05
2019-03-13T04:44:30.983Z,6.86
2019-03-13T04:47:00.568Z,7.00
2019-03-13T04:49:30.098Z,7.27
2019-03-13T04:51:59.644Z,7.08
2019-03-13T04:54:29.589Z,7.26
2019-03-13T04:56:59.493Z,7.15
2019-03-13T04:59:29.144Z,7.27
2019-03-13T05:01:58.785Z,7.22
2019-03-13T05:04:28.725Z,7.17
2019-03-13T05:07:01.481Z,7.21
2019-03-13T05:09:39.199Z,7.10
2019-03-13T05:12:08.895Z,7.21
2019-03-13T05:14:40.032Z,7.03
2019-03-13T05:17:09.715Z,7.00
2019-03-13T05:19:39.249Z,7.15
2019-03-13T05:22:08.773Z,7.18
2019-03-13T05:24:38.288Z,7.10
2019-03-13T05:27:08.176Z,7.10
2019-03-13T05:29:37.926Z,7.24
2019-03-13T05:32:07.950Z,7.02
2019-03-13T05:34:37.724Z,7.03
2019-03-13T05:37:07.254Z,7.12
2019-03-13T05:39:37.074Z,7.31
2019-03-13T05:42:07.090Z,7.28
2019-03-13T05:44:36.771Z,7.17
2019-03-13T05:47:06.638Z,6.96
2019-03-13T05:49:36.846Z,7.10
2019-03-13T05:52:07.980Z,7.09
2019-03-13T05:54:37.590Z,7.19
2019-03-13T05:57:07.366Z,7.10
2019-03-13T05:59:39.666Z,7.01
2019-03-13T06:02:09.189Z,7.04
2019-03-13T06:04:39.622Z,7.41
2019-03-13T06:07:09.307Z,7.44
2019-03-13T06:09:38.885Z,7.34
2019-03-13T06:12:08.470Z,7.34
2019-03-13T06:14:38.103Z,7.42
2019-03-13T06:17:07.810Z,7.57
2019-03-13T06:19:37.667Z,7.51
2019-03-13T06:22:07.334Z,7.38
2019-03-13T06:24:36.920Z,7.43
2019-03-13T06:27:06.705Z,7.63
2019-03-13T06:29:36.668Z,7.60
2019-03-13T06:32:06.319Z,7.63
2019-03-13T06:34:35.889Z,7.62
2019-03-13T06:37:05.528Z,7.59
2019-03-13T06:39:35.270Z,7.64
2019-03-13T06:42:04.887Z,7.70
2019-03-13T06:44:34.410Z,7.93
2019-03-13T06:47:04.396Z,7.74
2019-03-13T06:49:36.978Z,7.80
2019-03-13T06:52:06.552Z,7.69
2019-03-13T06:54:36.288Z,7.67
2019-03-13T06:57:05.911Z,7.66
2019-03-13T06:59:37.048Z,7.75
2019-03-13T07:02:08.939Z,7.66
2019-03-13T07:04:56.642Z,7.66
2019-03-13T07:07:36.767Z,7.58
2019-03-13T07:10:20.364Z,7.67
2019-03-13T07:12:51.612Z,7.83
2019-03-13T07:15:28.592Z,7.93
2019-03-13T07:17:59.759Z,7.97
2019-03-13T07:20:36.822Z,7.88
2019-03-13T07:26:01.284Z,7.82
2019-03-13T07:28:32.432Z,8.26
2019-03-13T07:31:07.803Z,8.18
2019-03-13T07:33:54.068Z,8.05
2019-03-13T07:36:23.631Z,8.08
2019-03-13T07:38:54.788Z,8.00
2019-03-13T07:41:25.967Z,8.36
2019-03-13T07:43:57.171Z,8.26
2019-03-13T07:46:44.732Z,8.20
2019-03-13T07:49:16.451Z,8.47
2019-03-13T07:51:53.249Z,8.27
2019-03-13T07:54:28.080Z,8.34
2019-03-13T07:57:16.883Z,8.21
2019-03-13T07:59:48.598Z,8.18
2019-03-13T08:02:20.299Z,8.21
2019-03-13T08:04:54.002Z,8.30
2019-03-13T08:07:31.439Z,8.40
2019-03-13T08:10:02.605Z,8.35
2019-03-13T08:12:44.287Z,8.56
2019-03-13T08:15:30.388Z,8.61
2019-03-13T08:18:01.669Z,8.61
2019-03-13T08:20:39.196Z,8.57
2019-03-13T08:23:16.379Z,8.67
2019-03-13T08:25:53.678Z,8.99
2019-03-13T08:28:32.001Z,9.39
2019-03-13T08:31:03.220Z,10.59
2019-03-13T08:33:40.201Z,10.19
2019-03-13T08:36:17.620Z,10.57
2019-03-13T08:38:49.093Z,10.01
2019-03-13T08:41:23.185Z,9.69
2019-03-13T08:43:58.417Z,9.84
2019-03-13T08:46:35.373Z,10.14
2019-03-13T08:49:06.641Z,10.21
2019-03-13T08:51:46.976Z,10.31
2019-03-13T08:54:20.654Z,10.27
2019-03-13T08:56:57.946Z,10.47
2019-03-13T08:59:29.639Z,10.28
2019-03-13T09:02:06.560Z,10.83
2019-03-13T09:04:44.870Z,10.64
2019-03-13T09:07:14.166Z,10.72
2019-03-13T09:10:01.578Z,10.10
2019-03-13T09:12:44.751Z,9.81
2019-03-13T09:15:23.022Z,9.78
2019-03-13T09:17:57.116Z,9.93
2019-03-13T09:20:26.840Z,9.58
2019-03-13T09:23:13.234Z,9.71
2019-03-13T09:25:59.561Z,9.45
2019-03-13T09:28:36.591Z,9.26
2019-03-13T09:31:14.976Z,9.34
2019-03-13T09:33:48.261Z,9.26
2019-03-13T09:36:19.421Z,9.00
2019-03-13T09:38:48.747Z,9.17
2019-03-13T09:41:27.374Z,9.12
2019-03-13T09:43:59.986Z,9.10
2019-03-13T09:46:29.549Z,9.06
2019-03-13T09:49:06.971Z,9.01
2019-03-13T09:51:38.169Z,9.02
2019-03-13T09:54:21.580Z,8.94
2019-03-13T09:57:04.710Z,8.87
2019-03-13T09:59:43.511Z,8.86
2019-03-13T10:02:29.965Z,8.93
2019-03-13T10:05:07.230Z,8.93
2019-03-13T10:07:39.643Z,8.95
2019-03-13T10:10:26.244Z,8.98
2019-03-13T10:13:09.303Z,9.00
2019-03-13T10:15:49.463Z,8.87
2019-03-13T10:18:18.805Z,8.55
2019-03-13T10:21:07.863Z,8.58
2019-03-13T10:23:37.228Z,8.71
2019-03-13T10:26:23.434Z,8.65
2019-03-13T10:29:10.572Z,8.85
2019-03-13T10:31:39.958Z,8.82
2019-03-13T10:34:17.805Z,9.05
2019-03-13T10:36:52.253Z,9.09
2019-03-13T10:39:23.578Z,9.53
2019-03-13T10:42:10.693Z,9.62
2019-03-13T10:44:47.959Z,9.30
2019-03-13T10:47:20.179Z,9.13
2019-03-13T10:50:01.877Z,9.14
2019-03-13T10:52:36.316Z,8.86
2019-03-13T10:55:11.431Z,8.98
2019-03-13T10:57:42.636Z,9.10
2019-03-13T11:00:32.559Z,9.01
2019-03-13T11:03:01.973Z,8.94
2019-03-13T11:05:49.512Z,8.95
2019-03-13T11:08:22.330Z,8.88
2019-03-13T11:10:56.339Z,8.87
2019-03-13T11:13:35.246Z,8.84
2019-03-13T11:16:12.357Z,9.02
2019-03-13T11:18:55.721Z,9.36
2019-03-13T11:21:41.992Z,9.49
2019-03-13T11:24:25.832Z,9.07
2019-03-13T11:27:08.801Z,9.27
2019-03-13T11:29:46.275Z,9.45
2019-03-13T11:32:23.907Z,9.25
2019-03-13T11:35:11.349Z,9.60
2019-03-13T11:37:58.666Z,8.96
2019-03-13T11:40:46.477Z,9.02
2019-03-13T11:43:20.255Z,9.32
2019-03-13T11:45:57.162Z,9.18
2019-03-13T11:48:41.773Z,8.64
2019-03-13T11:51:29.270Z,8.74
2019-03-13T11:54:09.339Z,8.47
2019-03-13T11:56:39.457Z,8.59
2019-03-13T11:59:22.900Z,8.56
2019-03-13T12:02:01.195Z,8.73
2019-03-13T12:04:30.576Z,8.64
2019-03-13T12:07:07.407Z,8.84
2019-03-13T12:09:38.698Z,8.74
2019-03-13T12:12:18.531Z,9.00
2019-03-13T12:14:58.466Z,9.04
2019-03-13T12:17:35.462Z,9.13
2019-03-13T12:20:08.634Z,9.44
2019-03-13T12:22:44.302Z,9.61
2019-03-13T12:25:16.206Z,9.61
2019-03-13T12:27:50.496Z,9.63
2019-03-13T12:30:21.794Z,9.65
2019-03-13T12:32:56.328Z,9.35
2019-03-13T12:35:47.525Z,9.09
2019-03-13T12:38:20.293Z,9.07
2019-03-13T12:41:03.116Z,9.42
2019-03-13T12:43:55.047Z,9.64
2019-03-13T12:46:42.120Z,9.13
2019-03-13T12:49:16.198Z,9.28
2019-03-13T12:51:48.232Z,9.13
2019-03-13T12:54:34.968Z,8.79
2019-03-13T12:57:07.342Z,8.92
2019-03-13T12:59:43.982Z,8.82
2019-03-13T13:02:15.843Z,8.93
2019-03-13T13:04:45.207Z,9.00
2019-03-13T13:07:16.446Z,9.11
2019-03-13T13:09:47.789Z,8.97
2019-03-13T13:12:23.181Z,9.13
2019-03-13T13:14:57.279Z,9.57
2019-03-13T13:17:43.971Z,9.42
2019-03-13T13:20:15.524Z,9.43
2019-03-13T13:22:45.199Z,9.34
2019-03-13T13:25:14.838Z,9.06
2019-03-13T13:27:44.610Z,9.33
2019-03-13T13:30:16.996Z,9.36
2019-03-13T13:32:48.412Z,9.02
2019-03-13T13:35:18.071Z,9.11
2019-03-13T13:37:47.850Z,9.38
2019-03-13T13:40:18.583Z,9.22
2019-03-13T13:42:50.131Z,8.94
2019-03-13T13:45:36.606Z,8.93
2019-03-13T13:48:06.510Z,9.15
2019-03-13T13:50:36.392Z,9.04
2019-03-13T13:53:06.295Z,9.20
2019-03-13T13:55:35.834Z,9.24
2019-03-13T13:58:05.474Z,9.05
2019-03-13T14:00:35.277Z,9.08
2019-03-13T14:03:05.941Z,9.16
2019-03-13T14:05:35.528Z,8.95
2019-03-13T14:08:05.213Z,8.83
2019-03-13T14:10:34.806Z,8.85
2019-03-13T14:13:04.470Z,8.97
2019-03-13T14:15:36.120Z,8.71
2019-03-13T14:18:05.950Z,9.03
2019-03-13T14:20:35.737Z,9.06
2019-03-13T14:23:05.719Z,9.12
2019-03-13T14:25:35.275Z,8.77
2019-03-13T14:28:05.056Z,8.73
2019-03-13T14:30:34.737Z,8.79
2019-03-13T14:33:04.314Z,8.73
2019-03-13T14:35:33.875Z,9.18
2019-03-13T14:38:03.703Z,8.99
2019-03-13T14:40:33.360Z,8.87
2019-03-13T14:43:02.953Z,8.97
2019-03-13T14:45:32.480Z,9.06
2019-03-13T14:48:02.057Z,9.10
2019-03-13T14:50:31.958Z,8.82
2019-03-13T14:53:01.571Z,9.02
2019-03-13T14:55:31.222Z,8.98
2019-03-13T14:58:01.120Z,9.16
2019-03-13T15:00:30.891Z,9.00
2019-03-13T15:03:00.472Z,9.01
2019-03-13T15:05:30.381Z,9.03
2019-03-13T15:08:00.043Z,9.08
2019-03-13T15:10:29.613Z,9.12
2019-03-13T15:12:59.133Z,9.02
2019-03-13T15:15:28.746Z,8.93
2019-03-13T15:18:00.337Z,8.96
2019-03-13T15:20:30.673Z,8.81
2019-03-13T15:23:00.640Z,8.97
2019-03-13T15:25:30.252Z,8.76
2019-03-13T15:27:59.870Z,8.90
2019-03-13T15:30:31.636Z,8.91
2019-03-13T15:33:01.224Z,8.77
2019-03-13T15:35:31.962Z,8.78
2019-03-13T15:38:02.737Z,8.78
2019-03-13T15:40:32.332Z,8.84
2019-03-13T15:43:02.013Z,8.82
2019-03-13T15:45:34.680Z,8.98
2019-03-13T15:48:04.701Z,8.93
2019-03-13T15:50:34.379Z,8.95
2019-03-13T15:53:05.344Z,9.02
2019-03-13T15:55:34.891Z,8.88
2019-03-13T15:58:04.463Z,8.82
2019-03-13T16:00:34.172Z,8.37
2019-03-13T16:03:03.771Z,8.23
2019-03-13T16:05:33.444Z,8.17
2019-03-13T16:08:03.046Z,8.39
2019-03-13T16:10:32.708Z,8.28
2019-03-13T16:13:04.064Z,8.12
2019-03-13T16:15:36.759Z,8.07
2019-03-13T16:18:06.489Z,8.09
2019-03-13T16:20:36.086Z,8.13
2019-03-13T16:23:05.756Z,7.99
2019-03-13T16:25:35.436Z,8.04
2019-03-13T16:28:05.019Z,7.97
2019-03-13T16:30:52.904Z,8.03
2019-03-13T16:33:22.415Z,8.12
2019-03-13T16:35:52.271Z,8.04
2019-03-13T16:38:24.030Z,8.28
2019-03-13T16:40:53.541Z,8.17
2019-03-13T16:43:23.115Z,8.10
2019-03-13T16:45:52.708Z,8.19
2019-03-13T16:48:22.386Z,8.14
2019-03-13T16:50:51.913Z,8.10
2019-03-13T16:53:23.855Z,8.05
2019-03-13T16:55:53.422Z,7.98
2019-03-13T16:58:23.148Z,7.97
2019-03-13T17:00:54.056Z,7.71
2019-03-13T17:03:25.333Z,7.84
2019-03-13T17:05:55.062Z,7.75
2019-03-13T17:08:25.964Z,7.83
2019-03-13T17:10:55.483Z,7.98
2019-03-13T17:13:25.119Z,8.22
2019-03-13T17:15:54.927Z,7.88
2019-03-13T17:18:24.468Z,7.97
2019-03-13T17:20:53.989Z,7.86
2019-03-13T17:23:23.547Z,7.78
2019-03-13T17:25:53.116Z,7.77
2019-03-13T17:28:23.161Z,7.59
2019-03-13T17:30:52.836Z,7.74
2019-03-13T17:33:22.662Z,7.73
2019-03-13T17:35:52.199Z,7.75
2019-03-13T17:38:22.277Z,7.56
2019-03-13T17:40:51.834Z,7.57
2019-03-13T17:43:21.352Z,7.77
2019-03-13T17:45:51.047Z,7.68
2019-03-13T17:48:20.853Z,7.75
2019-03-13T17:50:50.491Z,7.69
2019-03-13T17:53:20.190Z,7.63
2019-03-13T17:55:49.748Z,7.73
2019-03-13T17:58:22.456Z,7.83
2019-03-13T18:00:55.245Z,7.67
2019-03-13T18:03:25.692Z,7.77
2019-03-13T18:05:55.279Z,7.85
2019-03-13T18:08:27.857Z,7.92
2019-03-13T18:10:57.450Z,7.90
2019-03-13T18:13:26.942Z,7.63
2019-03-13T18:15:56.916Z,7.70
2019-03-13T18:18:27.063Z,7.74
2019-03-13T18:20:58.975Z,7.96
2019-03-13T18:23:32.276Z,7.80
2019-03-13T18:26:01.885Z,7.96
2019-03-13T18:28:31.476Z,7.91
2019-03-13T18:31:02.157Z,7.86
2019-03-13T18:33:32.005Z,7.70
2019-03-13T18:36:01.511Z,7.72
2019-03-13T18:38:31.123Z,7.71
2019-03-13T18:41:00.781Z,7.67
2019-03-13T18:43:30.359Z,7.80
2019-03-13T18:46:00.432Z,7.83
2019-03-13T18:48:30.179Z,8.02
2019-03-13T18:50:59.763Z,8.06
2019-03-13T18:53:29.385Z,7.90
2019-03-13T18:55:58.902Z,7.77
2019-03-13T18:58:30.049Z,7.76
2019-03-13T19:00:59.651Z,7.87
2019-03-13T19:03:29.302Z,7.57
2019-03-13T19:05:58.809Z,7.61
2019-03-13T19:08:31.905Z,7.88
2019-03-13T19:11:01.493Z,7.85
2019-03-13T19:13:31.079Z,7.77
2019-03-13T19:16:00.788Z,7.78
2019-03-13T19:18:30.322Z,7.59
2019-03-13T19:20:59.982Z,7.65
2019-03-13T19:23:29.583Z,7.55
2019-03-13T19:25:59.655Z,7.88
2019-03-13T19:28:29.368Z,8.07
2019-03-13T19:30:59.114Z,7.84
2019-03-13T19:33:30.352Z,8.04
2019-03-13T19:35:59.874Z,8.10
2019-03-13T19:38:32.272Z,8.36
2019-03-13T19:41:02.528Z,8.02
2019-03-13T19:43:32.045Z,8.06
2019-03-13T19:46:01.787Z,7.76
2019-03-13T19:48:31.413Z,8.22
2019-03-13T19:51:01.009Z,8.03
2019-03-13T19:53:30.715Z,7.93
2019-03-13T19:56:00.348Z,7.89
2019-03-13T19:58:29.933Z,7.86
2019-03-13T20:00:59.686Z,7.79
2019-03-13T20:03:29.407Z,7.84
2019-03-13T20:05:59.000Z,8.09
2019-03-13T20:08:31.769Z,8.10
2019-03-13T20:11:02.309Z,7.86
2019-03-13T20:13:31.895Z,7.81
2019-03-13T20:16:02.004Z,8.09
2019-03-13T20:18:31.777Z,8.10
2019-03-13T20:21:01.594Z,7.80
2019-03-13T20:23:31.148Z,7.93
2019-03-13T20:26:00.807Z,7.98
2019-03-13T20:28:30.327Z,7.92
2019-03-13T20:31:00.445Z,7.99
2019-03-13T20:33:30.120Z,8.09
2019-03-13T20:35:59.689Z,8.02
2019-03-13T20:38:29.516Z,8.09
2019-03-13T20:40:59.219Z,8.22
2019-03-13T20:43:28.960Z,8.32
2019-03-13T20:45:59.441Z,8.35
2019-03-13T20:48:29.129Z,8.27
2019-03-13T20:50:59.041Z,8.38
2019-03-13T20:53:29.658Z,8.28
2019-03-13T20:55:59.483Z,8.41
2019-03-13T20:58:29.534Z,8.48
2019-03-13T21:00:59.493Z,8.48
2019-03-13T21:03:29.209Z,8.36
2019-03-13T21:06:00.653Z,8.43
2019-03-13T21:08:30.832Z,8.61
2019-03-13T21:11:00.600Z,8.54
2019-03-13T21:13:30.190Z,8.58
2019-03-13T21:15:59.859Z,8.65
2019-03-13T21:18:29.508Z,8.48
2019-03-13T21:20:59.132Z,8.61
2019-03-13T21:23:28.840Z,8.68
2019-03-13T21:25:58.370Z,8.66
2019-03-13T21:28:27.914Z,8.62
2019-03-13T21:30:57.706Z,8.73
2019-03-13T21:33:27.210Z,8.87
2019-03-13T21:35:56.936Z,8.63
2019-03-13T21:38:26.648Z,8.61
2019-03-13T21:40:56.362Z,8.70
2019-03-13T21:43:26.610Z,8.71
2019-03-13T21:45:56.230Z,8.79
2019-03-13T21:48:26.225Z,8.79
2019-03-13T21:50:56.021Z,8.94
2019-03-13T21:53:26.202Z,8.76
2019-03-13T21:55:56.059Z,8.77
2019-03-13T21:58:25.585Z,8.76
2019-03-13T22:00:55.520Z,8.67
2019-03-13T22:03:29.730Z,8.85
2019-03-13T22:05:56.606Z,8.92
2019-03-13T22:08:26.297Z,8.93
2019-03-13T22:10:55.963Z,8.74
2019-03-13T22:13:25.701Z,8.71
2019-03-13T22:15:58.851Z,8.66
2019-03-13T22:18:27.747Z,8.48
2019-03-13T22:20:57.309Z,8.57
2019-03-13T22:23:27.559Z,8.59
2019-03-13T22:25:57.247Z,8.78
2019-03-13T22:28:26.826Z,8.53
2019-03-13T22:30:56.999Z,8.82
2019-03-13T22:33:26.536Z,8.84
2019-03-13T22:35:56.323Z,8.51
2019-03-13T22:38:27.525Z,8.62
2019-03-13T22:40:57.303Z,8.63
2019-03-13T22:43:28.324Z,8.49
2019-03-13T22:45:57.941Z,8.58
2019-03-13T22:48:27.532Z,8.52
2019-03-13T22:50:57.129Z,8.70
2019-03-13T22:53:29.043Z,8.55
2019-03-13T22:55:58.700Z,8.69
2019-03-13T22:58:28.724Z,8.73
2019-03-13T23:01:03.690Z,8.62
2019-03-13T23:03:33.419Z,8.56
2019-03-13T23:06:03.279Z,8.52
2019-03-13T23:08:34.373Z,8.74
2019-03-13T23:11:04.141Z,8.54
2019-03-13T23:13:33.790Z,8.65
2019-03-13T23:16:03.407Z,8.63
2019-03-13T23:18:33.014Z,8.60
2019-03-13T23:21:02.669Z,8.56
2019-03-13T23:23:32.212Z,8.42
2019-03-13T23:26:01.980Z,8.64
2019-03-13T23:28:31.533Z,8.72
2019-03-13T23:31:01.307Z,8.53
2019-03-13T23:33:30.884Z,8.49
2019-03-13T23:36:00.477Z,8.33
2019-03-13T23:38:30.112Z,8.39
2019-03-13T23:40:59.833Z,8.39
2019-03-13T23:43:29.449Z,8.28
2019-03-13T23:45:59.247Z,8.33
2019-03-13T23:48:29.107Z,8.43
2019-03-13T23:51:00.294Z,8.21
2019-03-13T23:53:29.918Z,8.41
2019-03-13T23:55:59.470Z,8.50
2019-03-13T23:58:29.000Z,8.46
